• Join FlightAware (Why Join?)
  • Login
  • US Flag 
08:30AM EDT


 

Airport Tracker/Info


-or-


 

Live Flight TrackerFlight Track Log ✈ N4141G ✈ 08-Jul-2013 ✈ KFFT - KDUX

Flight Track Log - Related Links

Times and Time Zones

All times are in EDT time to prevent confusion due to time zone crossing. See the N4141G flight status page for this flight to view local times or setup timezone preferences in your user account.

Time Position Orientation Groundspeed Altitude Reporting Facility
EDT Latitude Longitude Course Direction KTS MPH feet Rate Location/Type
07:52AM 38.1583 -85.1169 267° West 120 138 4,100  Level Indianapolis Center
07:53AM 38.1564 -85.1692 267° West 125 144 4,900 600 Climbing Indianapolis Center
07:54AM 38.1531 -85.2075 264° West 129 148 5,400 600 Climbing Indianapolis Center
07:55AM 38.1492 -85.2647 265° West 133 153 6,200 720 Climbing Indianapolis Center
07:56AM 38.1492 -85.3117 270° West 133 153 6,900 600 Climbing Indianapolis Center
07:57AM 38.1444 -85.3594 263° West 135 155 7,500 540 Climbing Indianapolis Center
07:58AM 38.1417 -85.4086 266° West 137 158 8,100 600 Climbing Indianapolis Center
07:59AM 38.1394 -85.4569 267° West 137 158 8,800 600 Climbing Indianapolis Center
08:00AM 38.1353 -85.5072 264° West 141 162 9,400 600 Climbing Indianapolis Center
08:01AM 38.1325 -85.5572 266° West 142 163 10,100 600 Climbing Indianapolis Center
08:02AM 38.1286 -85.6067 264° West 141 162 10,700 540 Climbing Indianapolis Center
08:03AM 38.1258 -85.6553 266° West 138 159 11,300 600 Climbing Indianapolis Center
08:04AM 38.1231 -85.7047 266° West 140 161 12,000 660 Climbing Indianapolis Center
08:05AM 38.1189 -85.7653 265° West 143 165 12,700 600 Climbing Indianapolis Center
08:06AM 38.1158 -85.8164 266° West 144 166 13,300 600 Climbing Indianapolis Center
08:07AM 38.1119 -85.8669 264° West 143 165 14,000 600 Climbing Indianapolis Center
08:08AM 38.1078 -85.9186 264° West 147 169 14,600 540 Climbing Indianapolis Center
08:09AM 38.1044 -85.9697 265° West 145 167 15,200 600 Climbing Indianapolis Center
08:10AM 38.1006 -86.0206 264° West 145 167 15,900 600 Climbing Indianapolis Center
08:11AM 38.0969 -86.0689 265° West 140 161 16,500 240 Climbing Indianapolis Center
08:12AM 38.0944 -86.1242 267° West 154 177 16,500  Level Indianapolis Center
08:13AM 38.0894 -86.1844 264° West 169 194 16,500  Level Indianapolis Center
08:14AM 38.0853 -86.2581 266° West 172 198 16,500  Level Indianapolis Center
08:15AM 38.0803 -86.3197 264° West 173 199 16,500  Level Indianapolis Center
08:16AM 38.0758 -86.3825 265° West 176 203 16,500  Level Indianapolis Center
08:18AM 38.0708 -86.4447 264° West 177 204 16,500  Level Indianapolis Center
08:19AM 38.0672 -86.5069 266° West 176 203 16,500  Level Indianapolis Center
08:21AM 38.0572 -86.6289 264° West 174 200 16,500  Level Indianapolis Center
08:22AM 38.0525 -86.6908 264° West 175 201 16,500  Level Indianapolis Center
08:23AM 38.0469 -86.7647 265° West 174 200 16,500  Level Indianapolis Center
08:24AM 38.0422 -86.8278 265° West 178 205 16,500  Level Indianapolis Center
08:25AM 38.0378 -86.8906 265° West 178 205 16,500  Level Indianapolis Center
08:26AM 38.0322 -86.9522 263° West 175 201 16,500  Level Indianapolis Center
08:27AM 38.0275 -87.0142 264° West 175 201 16,500  Level Indianapolis Center
08:28AM 38.0233 -87.0764 265° West 176 203 16,500  Level Indianapolis Center
08:29AM 38.0175 -87.1386 263° West 176 203 16,500  Level Indianapolis Center
08:30AM 38.0133 -87.2011 265° West 176 203 16,500  Level Indianapolis Center
08:31AM 38.0078 -87.2647 264° West 180 207 16,500  Level Indianapolis Center
08:32AM 38.0028 -87.3281 264° West 180 207 16,500  Level Indianapolis Center
08:33AM 37.9961 -87.4033 264° West 178 205 16,500  Level Indianapolis Center
08:34AM 37.9917 -87.4650 265° West 176 203 16,500  Level Indianapolis Center
08:35AM 37.9867 -87.5272 264° West 176 203 16,500  Level Indianapolis Center
08:36AM 37.9808 -87.5883 263° West 174 200 16,500  Level Indianapolis Center
08:37AM 37.9767 -87.6483 265° West 171 197 16,500  Level Indianapolis Center
08:38AM 37.9708 -87.7103 263° West 173 199 16,500  Level Indianapolis Center
08:39AM 37.9661 -87.7703 264° West 171 197 16,500  Level Indianapolis Center
08:40AM 37.9614 -87.8319 264° West 174 200 16,500  Level Indianapolis Center
08:41AM 37.9542 -87.9050 263° West 173 199 16,500  Level Indianapolis Center
08:42AM 37.9497 -87.9653 265° West 173 199 16,500  Level Indianapolis Center
08:43AM 37.9442 -88.0253 263° West 171 197 16,500  Level Indianapolis Center
08:44AM 37.9389 -88.0853 264° West 171 197 16,500  Level Indianapolis Center
08:45AM 37.9333 -88.1458 263° West 171 197 16,500  Level Indianapolis Center
08:46AM 37.9286 -88.2067 264° West 173 199 16,500  Level Indianapolis Center
08:47AM 37.9244 -88.2786 266° West 170 196 16,500  Level Kansas City Center
08:49AM 37.9189 -88.3397 263° West 172 198 16,500  Level Kansas City Center
08:50AM 37.9128 -88.3992 263° West 170 196 16,500  Level Kansas City Center
08:51AM 37.9083 -88.4592 265° West 170 196 16,500  Level Kansas City Center
08:52AM 37.9022 -88.5192 263° West 171 197 16,500  Level Kansas City Center
08:53AM 37.8958 -88.5797 262° West 172 198 16,500  Level Kansas City Center
08:55AM 37.8836 -88.7003 263° West 172 198 16,500  Level Indianapolis Center
08:56AM 37.8789 -88.7650 265° West 172 198 16,500  Level Kansas City Center
08:57AM 37.8739 -88.8247 264° West 172 198 16,500  Level Kansas City Center
08:58AM 37.8672 -88.8850 262° West 173 199 16,500  Level Kansas City Center
08:59AM 37.8600 -88.9572 263° West 173 199 16,500  Level Kansas City Center
09:00AM 37.8550 -89.0181 264° West 174 200 16,500  Level Kansas City Center
09:01AM 37.8472 -89.0856 262° West 176 203 16,500  Level Kansas City Center
09:02AM 37.8425 -89.1458 264° West 174 200 16,500  Level Kansas City Center
09:03AM 37.8358 -89.2069 262° West 176 203 16,500  Level Kansas City Center
09:04AM 37.8303 -89.2711 264° West 172 198 16,500  Level Kansas City Center
09:05AM 37.8253 -89.3269 264° West 172 198 16,500  Level Kansas City Center
09:06AM 37.8189 -89.3936 263° West 173 199 16,500  Level Kansas City Center
09:07AM 37.8125 -89.4558 263° West 177 204 16,500  Level Kansas City Center
09:08AM 37.8072 -89.5169 264° West 178 205 16,500  Level Kansas City Center
09:09AM 37.8006 -89.5814 263° West 181 208 16,500  Level Kansas City Center
09:10AM 37.7939 -89.6450 262° West 183 211 16,500  Level Kansas City Center
09:11AM 37.7867 -89.7078 262° West 183 211 16,500  Level Kansas City Center
09:12AM 37.7803 -89.7706 263° West 182 209 16,500  Level Kansas City Center
09:13AM 37.7722 -89.8447 262° West 179 206 16,500  Level Kansas City Center
09:14AM 37.7667 -89.9083 264° West 180 207 16,500  Level Kansas City Center
09:15AM 37.7600 -89.9722 263° West 183 211 16,500  Level Kansas City Center
09:16AM 37.7525 -90.0367 262° West 185 213 16,500  Level Kansas City Center
09:17AM 37.7464 -90.0992 263° West 182 209 16,500  Level Kansas City Center
09:18AM 37.7389 -90.1639 262° West 184 212 16,500  Level Kansas City Center
09:19AM 37.7333 -90.2264 264° West 181 208 16,500  Level Kansas City Center
09:20AM 37.7242 -90.3031 261° West 184 212 16,500  Level Kansas City Center
09:21AM 37.7178 -90.3650 263° West 180 207 16,500 -60 Level Kansas City Center
09:22AM 37.7100 -90.4261 261° West 178 205 16,400 -60 Descending Kansas City Center
09:24AM 37.7042 -90.4883 263° West 178 205 16,400  Level Kansas City Center
09:25AM 37.6964 -90.5517 261° West 182 209 16,400  Level Kansas City Center
09:26AM 37.6897 -90.6150 262° West 182 209 16,400  Level Kansas City Center
09:27AM 37.6828 -90.6786 262° West 182 209 16,400  Level Kansas City Center
09:28AM 37.6742 -90.7553 262° West 183 211 16,400  Level Kansas City Center
09:29AM 37.6669 -90.8178 262° West 181 208 16,400  Level Kansas City Center
09:30AM 37.6603 -90.8811 262° West 181 208 16,400  Level Kansas City Center
09:31AM 37.6531 -90.9428 262° West 180 207 16,400  Level Kansas City Center
09:32AM 37.6464 -91.0058 262° West 181 208 16,400  Level Kansas City Center
09:33AM 37.6394 -91.0697 262° West 183 211 16,400  Level Kansas City Center
09:34AM 37.6311 -91.1383 261° West 180 207 16,400  Level Kansas City Center
09:35AM 37.6233 -91.2019 261° West 182 209 16,400  Level Kansas City Center
09:36AM 37.6169 -91.2644 263° West 180 207 16,400  Level Kansas City Center
09:37AM 37.6100 -91.3272 262° West 180 207 16,400  Level Kansas City Center
09:38AM 37.6014 -91.4022 262° West 180 207 16,400  Level Kansas City Center
09:39AM 37.5936 -91.4625 261° West 176 203 16,400  Level Kansas City Center
09:40AM 37.5867 -91.5264 262° West 182 209 16,400  Level Kansas City Center
09:41AM 37.5797 -91.5889 262° West 180 207 16,400  Level Kansas City Center
09:42AM 37.5722 -91.6517 261° West 180 207 16,400  Level Kansas City Center
09:43AM 37.5644 -91.7125 261° West 178 205 16,400  Level Kansas City Center
09:44AM 37.5567 -91.7753 261° West 179 206 16,400  Level Kansas City Center
09:45AM 37.5489 -91.8497 263° West 178 205 16,400  Level Kansas City Center
09:46AM 37.5408 -91.9122 261° West 179 206 16,400  Level Kansas City Center
09:47AM 37.5333 -91.9736 261° West 178 205 16,400  Level Kansas City Center
09:48AM 37.5264 -92.0347 262° West 176 203 16,400  Level Kansas City Center
09:49AM 37.5181 -92.0967 260° West 178 205 16,500  Climbing Kansas City Center
09:50AM 37.5114 -92.1594 262° West 179 206 16,500  Level Kansas City Center
09:51AM 37.5033 -92.2214 261° West 178 205 16,500  Level Kansas City Center
09:52AM 37.4950 -92.2839 260° West 179 206 16,500  Level Kansas City Center
09:53AM 37.4861 -92.3589 262° West 180 207 16,500  Level Kansas City Center
09:54AM 37.4783 -92.4219 261° West 180 207 16,500  Level Kansas City Center
09:56AM 37.4708 -92.4847 261° West 180 207 16,500  Level Kansas City Center
09:57AM 37.4617 -92.5483 260° West 182 209 16,500  Level Kansas City Center
09:58AM 37.4550 -92.6106 262° West 181 208 16,500  Level Kansas City Center
09:59AM 37.4467 -92.6722 260° West 180 207 16,500  Level Kansas City Center
10:00AM 37.4392 -92.7350 261° West 181 208 16,500  Level Kansas City Center
10:01AM 37.4283 -92.8072 259° West 177 204 16,500  Level Kansas City Center
10:02AM 37.4208 -92.8689 261° West 176 203 16,500  Level Kansas City Center
10:03AM 37.4128 -92.9306 261° West 178 205 16,500  Level Kansas City Center
10:04AM 37.4042 -92.9928 260° West 178 205 16,500  Level Kansas City Center
10:05AM 37.3961 -93.0550 261° West 179 206 16,500  Level Kansas City Center
10:06AM 37.3886 -93.1164 261° West 179 206 16,500  Level Kansas City Center
10:07AM 37.3808 -93.1786 261° West 179 206 16,500  Level Kansas City Center
10:08AM 37.3697 -93.2542 260° West 181 208 16,500  Level Kansas City Center
10:09AM 37.3611 -93.3161 260° West 181 208 16,500  Level Kansas City Center
10:10AM 37.3531 -93.3783 261° West 180 207 16,500  Level Kansas City Center
10:11AM 37.3467 -93.4408 263° West 180 207 16,500  Level Kansas City Center
10:12AM 37.3375 -93.5033 260° West 181 208 16,500  Level Kansas City Center
10:13AM 37.3278 -93.5631 258° West 177 204 16,500  Level Kansas City Center
10:14AM 37.3203 -93.6247 261° West 177 204 16,500  Level Kansas City Center
10:15AM 37.3108 -93.6975 261° West 175 201 16,500  Level Kansas City Center
10:16AM 37.3019 -93.7583 260° West 176 203 16,500  Level Kansas City Center
10:17AM 37.2942 -93.8197 261° West 176 203 16,500  Level Kansas City Center
10:18AM 37.2853 -93.8808 260° West 176 203 16,500  Level Kansas City Center
10:19AM 37.2756 -93.9414 259° West 177 204 16,500  Level Kansas City Center
10:20AM 37.2683 -94.0019 261° West 175 201 16,500  Level Kansas City Center
10:21AM 37.2597 -94.0631 260° West 175 201 16,500  Level Kansas City Center
10:22AM 37.2500 -94.1367 261° West 174 200 16,500  Level Kansas City Center
10:23AM 37.2419 -94.1964 260° West 173 199 16,500  Level Kansas City Center
10:24AM 37.2333 -94.2569 260° West 176 203 16,500  Level Kansas City Center
10:25AM 37.2250 -94.3150 260° West 170 196 16,500  Level Kansas City Center
10:27AM 37.2164 -94.3756 260° West 174 200 16,500  Level Kansas City Center
10:28AM 37.2072 -94.4331 259° West 170 196 16,500  Level Kansas City Center
10:29AM 37.1983 -94.4928 259° West 172 198 16,500  Level Kansas City Center
10:30AM 37.1889 -94.5669 261° West 177 204 16,500  Level Kansas City Center
10:31AM 37.1800 -94.6256 259° West 174 200 16,500  Level Kansas City Center
10:32AM 37.1711 -94.6858 260° West 174 200 16,500  Level Kansas City Center
10:33AM 37.1625 -94.7456 260° West 174 200 16,500  Level Kansas City Center
10:34AM 37.1547 -94.8064 261° West 175 201 16,500  Level Kansas City Center
10:35AM 37.1450 -94.8650 258° West 173 199 16,500  Level Kansas City Center
10:36AM 37.1350 -94.9369 260° West 175 201 16,500  Level Kansas City Center
10:37AM 37.1258 -94.9975 259° West 176 203 16,500  Level Kansas City Center
10:38AM 37.1172 -95.0569 260° West 175 201 16,500  Level Kansas City Center
10:39AM 37.1081 -95.1164 259° West 174 200 16,500  Level Kansas City Center
10:40AM 37.0994 -95.1769 260° West 176 203 16,500  Level Kansas City Center
10:41AM 37.0906 -95.2358 259° West 174 200 16,500  Level Kansas City Center
10:42AM 37.0789 -95.3081 259° West 176 203 16,500  Level Kansas City Center
10:43AM 37.0700 -95.3686 260° West 177 204 16,500  Level Kansas City Center
10:44AM 37.0614 -95.4281 260° West 176 203 16,500 -60 Level Kansas City Center
10:45AM 37.0514 -95.4881 258° West 176 203 16,400 -60 Descending Kansas City Center
10:46AM 37.0425 -95.5481 260° West 176 203 16,400  Level Kansas City Center
10:47AM 37.0339 -95.6086 260° West 176 203 16,400  Level Kansas City Center
10:48AM 37.0219 -95.6808 258° West 177 204 16,400  Level Kansas City Center
10:49AM 37.0122 -95.7422 259° West 179 206 16,400  Level Kansas City Center
10:50AM 37.0031 -95.8028 259° West 178 205 16,400  Level Kansas City Center
10:51AM 36.9936 -95.8631 259° West 177 204 16,400  Level Kansas City Center
10:52AM 36.9833 -95.9247 258° West 179 206 16,400  Level Kansas City Center
10:53AM 36.9739 -95.9856 259° West 179 206 16,400  Level Kansas City Center
10:54AM 36.9631 -96.0564 259° West 175 201 16,400  Level Kansas City Center
10:55AM 36.9531 -96.1183 259° West 178 205 16,400  Level Kansas City Center
10:57AM 36.9439 -96.1792 259° West 178 205 16,400  Level Kansas City Center
10:58AM 36.9339 -96.2375 258° West 175 201 16,400  Level Kansas City Center
10:59AM 36.9244 -96.2992 259° West 178 205 16,400  Level Kansas City Center
11:00AM 36.9150 -96.3583 259° West 176 203 16,400  Level Kansas City Center
11:01AM 36.9053 -96.4175 258° West 174 200 16,400  Level Kansas City Center
11:02AM 36.8944 -96.4892 259° West 175 201 16,400  Level Kansas City Center
11:03AM 36.8844 -96.5478 258° West 174 200 16,400  Level Kansas City Center
11:04AM 36.8747 -96.6078 259° West 175 201 16,400  Level Kansas City Center
11:05AM 36.8656 -96.6678 259° West 176 203 16,400  Level Kansas City Center
11:06AM 36.8558 -96.7272 258° West 175 201 16,400  Level Kansas City Center
11:07AM 36.8456 -96.7881 258° West 177 204 16,400  Level Kansas City Center
11:08AM 36.8336 -96.8603 258° West 177 204 16,400  Level Kansas City Center
11:09AM 36.8242 -96.9194 259° West 175 201 16,400  Level Kansas City Center
11:10AM 36.8144 -96.9792 259° West 175 201 16,400  Level Kansas City Center
11:11AM 36.8031 -97.0397 257° West 178 205 16,400  Level Kansas City Center
11:12AM 36.7886 -97.1194 257° West 177 204 16,400  Level Kansas City Center
11:13AM 36.7833 -97.1622 261° West 176 203 16,400  Level Kansas City Center
11:14AM 36.7717 -97.2283 258° West 179 206 16,400  Level Kansas City Center
11:15AM 36.7597 -97.2894 256° West 179 206 16,400  Level Kansas City Center
11:16AM 36.7497 -97.3531 259° West 179 206 16,400  Level Kansas City Center
11:17AM 36.7394 -97.4117 258° West 179 206 16,400  Level Kansas City Center
11:18AM 36.7294 -97.4753 259° West 179 206 16,400  Level Kansas City Center
11:19AM 36.7192 -97.5336 258° West 179 206 16,400  Level Kansas City Center
11:20AM 36.7089 -97.5919 258° West 178 205 16,400  Level Kansas City Center
11:21AM 36.6972 -97.6636 259° West 178 205 16,400  Level Kansas City Center
11:22AM 36.6869 -97.7219 258° West 179 206 16,400  Level Kansas City Center
11:23AM 36.6750 -97.7883 257° West 178 205 16,400  Level Kansas City Center
11:24AM 36.6628 -97.8519 257° West 180 207 16,400  Level Kansas City Center
11:25AM 36.6544 -97.9128 260° West 181 208 16,400  Level Kansas City Center
11:26AM 36.6436 -97.9658 256° West 180 207 16,400  Level Kansas City Center
11:27AM 36.6328 -98.0242 257° West 181 208 16,400  Level Kansas City Center
11:28AM 36.6239 -98.0772 258° West 180 207 16,400  Level Kansas City Center
11:29AM 36.6200 -98.1044 260° West 180 207 16,400  Level Kansas City Center
11:29AM 36.6089 -98.1619 256° West 181 208 16,400  Level Kansas City Center
11:30AM 36.5997 -98.2122 257° West 182 209 16,400  Level Kansas City Center
11:31AM 36.5894 -98.2756 259° West 181 208 16,400  Level Kansas City Center
11:32AM 36.5806 -98.3283 258° West 181 208 16,400  Level Kansas City Center
11:33AM 36.5747 -98.3622 258° West 181 208 16,400  Level Kansas City Center
11:33AM 36.5683 -98.3969 257° West 179 206 16,400  Level Kansas City Center
11:34AM 36.5639 -98.4231 258° West 181 208 16,400  Level Kansas City Center
11:34AM 36.5575 -98.4553 256° West 179 206 16,400  Level Kansas City Center
11:35AM 36.5522 -98.4836 257° West 180 207 16,400  Level Kansas City Center
11:36AM 36.5422 -98.5439 258° West 179 206 16,400  Level Kansas City Center
11:36AM 36.5328 -98.5875 255° West 180 207 16,400  Level Kansas City Center
11:37AM 36.5217 -98.6456 257° West 180 207 16,400  Level Kansas City Center
11:38AM 36.5111 -98.7064 258° West 179 206 16,400  Level Kansas City Center
11:39AM 36.5064 -98.7394 260° West 180 207 16,400  Level Kansas City Center
11:39AM 36.4986 -98.7750 255° West 179 206 16,400  Level Kansas City Center
11:41AM 36.4878 -98.8331 257° West 179 206 16,400  Level Kansas City Center
11:42AM 36.4769 -98.8961 258° West 179 206 16,400  Level Kansas City Center
11:42AM 36.4678 -98.9489 258° West 179 206 16,400  Level Kansas City Center
11:43AM 36.4617 -98.9786 256° West 180 207 16,400  Level Kansas City Center
11:44AM 36.4553 -99.0175 258° West 180 207 16,400  Level Kansas City Center
11:44AM 36.4483 -99.0528 256° West 183 211 16,400  Level Kansas City Center
11:45AM 36.4408 -99.0886 255° West 181 208 16,400  Level Kansas City Center
11:46AM 36.4297 -99.1492 257° West 181 208 16,400  Level Kansas City Center
11:47AM 36.4189 -99.2097 257° West 183 211 16,400  Level Kansas City Center
11:48AM 36.4003 -99.3061 257° West 180 207 16,400  Level Albuquerque Center
11:49AM 36.3894 -99.3675 258° West 182 209 16,400  Level Albuquerque Center
11:50AM 36.3792 -99.4269 258° West 179 206 16,400  Level Albuquerque Center
11:51AM 36.3658 -99.4906 255° West 185 213 16,400  Level Kansas City Center
11:52AM 36.3547 -99.5514 257° West 182 209 16,400  Level Kansas City Center
11:53AM 36.3428 -99.6108 256° West 180 207 16,400  Level Kansas City Center
11:54AM 36.3314 -99.6731 257° West 183 211 16,400  Level Kansas City Center
11:55AM 36.3200 -99.7342 257° West 183 211 16,400  Level Kansas City Center
11:56AM 36.3056 -99.8067 256° West 182 209 16,400  Level Kansas City Center
11:58AM 36.2939 -99.8664 256° West 180 207 16,400  Level Kansas City Center
11:59AM 36.2819 -99.9269 256° West 181 208 16,400  Level Kansas City Center
12:00PM 36.2703 -99.9883 257° West 182 209 16,400  Level Kansas City Center
12:01PM 36.2592 -100.0494 257° West 181 208 16,400  Level Kansas City Center
12:02PM 36.2464 -100.1117 256° West 185 213 16,400  Level Kansas City Center
12:03PM 36.2344 -100.1731 256° West 184 212 16,400 -240 Level Kansas City Center
12:04PM 36.2200 -100.2489 257° West 187 215 16,000 -360 Descending Kansas City Center
12:05PM 36.2072 -100.3156 257° West 195 224 15,700 -360 Descending Kansas City Center
12:06PM 36.1942 -100.3817 256° West 198 228 15,300 -420 Descending Kansas City Center
12:07PM 36.1803 -100.4481 255° West 199 229 14,900 -420 Descending Kansas City Center
12:08PM 36.1664 -100.5133 255° West 197 227 14,500 -420 Descending Kansas City Center
12:09PM 36.1544 -100.5786 257° West 194 223 14,100 -420 Descending Kansas City Center
12:10PM 36.1392 -100.6567 256° West 195 224 13,700 -420 Descending Kansas City Center
12:11PM 36.1253 -100.7247 256° West 195 224 13,300 -360 Descending Kansas City Center
12:12PM 36.1128 -100.7878 256° West 196 226 13,000 -360 Descending Albuquerque Center
12:13PM 36.0994 -100.8531 256° West 196 226 12,600 -360 Descending Albuquerque Center
12:14PM 36.0850 -100.9186 255° West 196 226 12,300 -420 Descending Albuquerque Center
12:15PM 36.0714 -100.9986 258° West 197 227 11,800 -480 Descending Albuquerque Center
12:16PM 36.0569 -101.0636 255° West 197 227 11,400 -360 Descending Albuquerque Center
12:17PM 36.0431 -101.1292 255° West 195 224 11,100 -360 Descending Albuquerque Center
12:18PM 36.0297 -101.1950 256° West 198 228 10,700 -420 Descending Albuquerque Center
12:19PM 36.0164 -101.2608 256° West 197 227 10,300 -420 Descending Albuquerque Center
12:20PM 36.0050 -101.3256 258° West 197 227 9,900 -480 Descending Albuquerque Center
12:21PM 35.9886 -101.3964 254° West 188 216 9,400 -480 Descending Albuquerque Center
12:22PM 35.9753 -101.4572 255° West 185 213 9,000 -420 Descending Albuquerque Center
12:23PM 35.9619 -101.5200 255° West 187 215 8,600 -420 Descending Albuquerque Center